Isabella — 9HSL7 — position and weather

sailwx.info

Track history (hours):
 
Tides and Currents Weather Stations Pressure Air Temp Water Temp Dewpoint Dewpoint Depression Visibility Wind Speed Wind Dir Waves Ship Positions

Isabella

Last reported at 2015-Apr-20 22:24 UTC. Time now 2015-Apr-21 08:21 UTC.
Position N 42°21' E 005°40'.

Length 244 m; draft 12.9 m.

Type: Tanker. MMSI: 215545000.

Date/timePositionNaut miles runAvg speedWind from/ knotsBaromVisibWave heightAir tempDewpointWater temp
2015-Apr-20 22:24N 42°21' E 005°40'1111.1
2015-Apr-20 21:26N 42°30' E 005°33'1910.3
2015-Apr-20 19:33N 42°47' E 005°20'1410.5
2015-Apr-20 18:12N 42°59' E 005°11'710.5
2015-Apr-20 17:32N 43°05' E 005°06'1010.2
2015-Apr-20 16:32N 43°15' E 005°00'9 9.6
2015-Apr-20 15:33N 43°23' E 004°56'2 2.0
2015-Apr-20 14:30N 43°25' E 004°53'0 0.0
2015-Apr-20 13:30N 43°25' E 004°53'0 0.0
2015-Apr-20 12:30N 43°25' E 004°53'0 0.0
2015-Apr-20 11:24N 43°25' E 004°53'0 0.0
2015-Apr-20 10:30N 43°25' E 004°53'0 0.0
2015-Apr-20 09:06N 43°25' E 004°53'0 0.0
2015-Apr-20 08:12N 43°25' E 004°53'0 0.0
2015-Apr-20 06:30N 43°25' E 004°53'0 0.0
2015-Apr-20 05:30N 43°25' E 004°53'0 0.0
2015-Apr-20 04:18N 43°25' E 004°53'0 0.0
2015-Apr-20 03:30N 43°25' E 004°53'0 0.0
2015-Apr-20 02:30N 43°25' E 004°53'0 0.0
2015-Apr-20 00:18N 43°25' E 004°53'0 0.0
2015-Apr-19 23:18N 43°25' E 004°53'0 0.0
2015-Apr-19 22:24N 43°25' E 004°53'0 0.0
2015-Apr-19 21:18N 43°25' E 004°53'0 0.0
2015-Apr-19 20:18N 43°25' E 004°53'0 0.0
2015-Apr-19 19:18N 43°25' E 004°53'0 0.0
2015-Apr-19 17:24N 43°25' E 004°53'0 0.0
2015-Apr-19 16:24N 43°25' E 004°53'0 0.0
2015-Apr-19 15:24N 43°25' E 004°53'0 0.0
2015-Apr-19 13:33N 43°25' E 004°53'3 2.9
2015-Apr-19 12:33N 43°23' E 004°57'9 8.9
2015-Apr-19 11:33N 43°15' E 005°02'10 9.2
2015-Apr-19 10:30N 43°06' E 004°57'1313.2
2015-Apr-19 09:33N 42°55' E 004°48'1110.6
2015-Apr-19 08:30N 42°46' E 004°40'1112.0
2015-Apr-19 07:33N 42°36' E 004°32'1211.9
2015-Apr-19 06:32N 42°26' E 004°23'1512.0
2015-Apr-19 05:18N 42°13' E 004°12'4911.6
2015-Apr-19 01:05N 41°32' E 003°37'811.9
2015-Apr-19 00:25N 41°25' E 003°31'1112.1
2015-Apr-18 23:33N 41°16' E 003°24'1312.4
2015-Apr-18 22:30N 41°05' E 003°14'1111.8
2015-Apr-18 21:33N 40°56' E 003°06'1212.0
2015-Apr-18 20:33N 40°46' E 002°58'1212.4
2015-Apr-18 19:33N 40°35' E 002°50'1212.2
2015-Apr-18 18:33N 40°24' E 002°42'1211.9
2015-Apr-18 17:33N 40°14' E 002°34'1211.9
2015-Apr-18 16:33N 40°04' E 002°26'1212.0
2015-Apr-18 15:33N 39°54' E 002°16'1111.5
2015-Apr-18 14:33N 39°45' E 002°08'1212.2
2015-Apr-18 13:33N 39°35' E 001°60'1212.0
2015-Apr-18 12:33N 39°23' E 001°56'1212.2
2015-Apr-18 11:33N 39°11' E 001°53'1212.2
2015-Apr-18 10:33N 38°59' E 001°50'1211.9
2015-Apr-18 09:33N 38°47' E 001°47'1312.2
2015-Apr-18 08:30N 38°35' E 001°42'1212.1
2015-Apr-18 07:31N 38°25' E 001°34'6312.1
2015-Apr-18 02:17N 37°30' E 000°55'911.9
2015-Apr-18 01:33N 37°22' E 000°50'1212.0
2015-Apr-18 00:33N 37°12' E 000°42'1212.0
2015-Apr-17 23:33N 37°01' E 000°35'1211.7
2015-Apr-17 22:33N 36°50' E 000°29'1111.2
2015-Apr-17 21:33N 36°41' E 000°21'1212.1
2015-Apr-17 20:33N 36°31' E 000°13'  
2015-Apr-14 20:09N 36°10' W 000°06'2 2.2
2015-Apr-14 19:28N 36°11' W 000°05'2 2.3
2015-Apr-14 18:33N 36°13' W 000°04'2 2.3
2015-Apr-14 17:33N 36°15' W 000°03'1 0.9
2015-Apr-14 16:33N 36°16' W 000°03'8 7.9
2015-Apr-14 15:31N 36°12' W 000°11'0 0.1
2015-Apr-14 13:33N 36°12' W 000°12'2 0.2
2015-Apr-14 05:30N 36°14' W 000°12'8 1.3
2015-Apr-13 23:31N 36°07' W 000°16'3 2.1
2015-Apr-13 22:13N 36°09' W 000°15'7 2.3
2015-Apr-13 19:18N 36°14' W 000°10'3 3.1
2015-Apr-13 18:29N 36°13' W 000°12'7 7.9
2015-Apr-13 17:33N 36°06' W 000°15'3 2.8
2015-Apr-13 16:32N 36°04' W 000°12'2 2.3
2015-Apr-13 15:30N 36°07' W 000°12'2 2.2
2015-Apr-13 14:32N 36°09' W 000°11'2 2.3
2015-Apr-13 13:33N 36°11' W 000°09'5 5.2
2015-Apr-13 12:33N 36°05' W 000°09'20 2.9
2015-Apr-13 05:33N 36°22' E 000°04'7 6.9
2015-Apr-13 04:33N 36°26' E 000°11'7 6.7
2015-Apr-13 03:34N 36°30' E 000°18'7 6.5
2015-Apr-13 02:33N 36°33' E 000°25'7 6.5
2015-Apr-13 01:33N 36°37' E 000°32'7 6.9
2015-Apr-13 00:33N 36°41' E 000°39'8 7.1
2015-Apr-12 23:29N 36°45' E 000°47'7 7.4
2015-Apr-12 22:33N 36°49' E 000°54'8 7.6
2015-Apr-12 21:33N 36°53' E 001°02'10 7.4
2015-Apr-12 20:09N 36°60' E 001°12'4 7.2
2015-Apr-12 19:33N 37°03' E 001°15'7 7.4
2015-Apr-12 18:33N 37°09' E 001°21'6 5.8
2015-Apr-12 17:33N 37°10' E 001°28'8 7.6
2015-Apr-12 16:33N 37°07' E 001°37'4 2.5
2015-Apr-12 15:10N 37°04' E 001°34'44 6.3
2015-Apr-12 08:11N 37°06' E 002°29'2 3.0
2015-Apr-12 07:27N 37°06' E 002°26'7 7.3
2015-Apr-12 06:27N 37°07' E 002°35'7 6.8
2015-Apr-12 05:27N 37°08' E 002°44'13 6.8
2015-Apr-12 03:33N 37°09' E 003°00'7 6.9
2015-Apr-12 02:29N 37°10' E 003°09'6 6.8
2015-Apr-12 01:33N 37°11' E 003°17'9 7.3
2015-Apr-12 00:17N 37°12' E 003°29'6 7.5
2015-Apr-11 23:28N 37°13' E 003°36'8 7.3
2015-Apr-11 22:24N 37°14' E 003°46'6 6.9
2015-Apr-11 21:29N 37°14' E 003°54'6 6.4
2015-Apr-11 20:33N 37°15' E 004°02'7 6.8
2015-Apr-11 19:34N 37°16' E 004°10'7 7.0
2015-Apr-11 18:33N 37°17' E 004°19'7 7.1
2015-Apr-11 17:33N 37°17' E 004°28'8 6.8
2015-Apr-11 16:20N 37°18' E 004°38'12 6.4
2015-Apr-11 14:26N 37°20' E 004°53'6 6.3
2015-Apr-11 13:30N 37°21' E 005°00'33 6.7
2015-Apr-11 08:32N 37°24' E 005°42'3110.2
2015-Apr-11 05:30N 37°28' E 006°21'22 9.9
2015-Apr-11 03:16N 37°30' E 006°49'16 9.1
2015-Apr-11 01:29N 37°32' E 007°09'11 8.9
2015-Apr-11 00:14N 37°33' E 007°23'8 8.9
2015-Apr-10 23:21N 37°34' E 007°33'9 9.8
2015-Apr-10 22:26N 37°35' E 007°44'  
Track history (hours):
 
Tides and Currents Weather Stations Pressure Air Temp Water Temp Dewpoint Dewpoint Depression Visibility Wind Speed Wind Dir Waves Ship Positions

Isabella

Last reported at 2015-Apr-20 22:24 UTC. Time now 2015-Apr-21 08:21 UTC.
Position N 42°21' E 005°40'.

Length 244 m; draft 12.9 m.

Type: Tanker. MMSI: 215545000.

Date/timePositionNaut miles runAvg speedWind from/ knotsBaromVisibWave heightAir tempDewpointWater temp
2015-Apr-20 22:24N 42°21' E 005°40'1111.1
2015-Apr-20 21:26N 42°30' E 005°33'1910.3
2015-Apr-20 19:33N 42°47' E 005°20'1410.5
2015-Apr-20 18:12N 42°59' E 005°11'710.5
2015-Apr-20 17:32N 43°05' E 005°06'1010.2
2015-Apr-20 16:32N 43°15' E 005°00'9 9.6
2015-Apr-20 15:33N 43°23' E 004°56'2 2.0
2015-Apr-20 14:30N 43°25' E 004°53'0 0.0
2015-Apr-20 13:30N 43°25' E 004°53'0 0.0
2015-Apr-20 12:30N 43°25' E 004°53'0 0.0
2015-Apr-20 11:24N 43°25' E 004°53'0 0.0
2015-Apr-20 10:30N 43°25' E 004°53'0 0.0
2015-Apr-20 09:06N 43°25' E 004°53'0 0.0
2015-Apr-20 08:12N 43°25' E 004°53'0 0.0
2015-Apr-20 06:30N 43°25' E 004°53'0 0.0
2015-Apr-20 05:30N 43°25' E 004°53'0 0.0
2015-Apr-20 04:18N 43°25' E 004°53'0 0.0
2015-Apr-20 03:30N 43°25' E 004°53'0 0.0
2015-Apr-20 02:30N 43°25' E 004°53'0 0.0
2015-Apr-20 00:18N 43°25' E 004°53'0 0.0
2015-Apr-19 23:18N 43°25' E 004°53'0 0.0
2015-Apr-19 22:24N 43°25' E 004°53'0 0.0
2015-Apr-19 21:18N 43°25' E 004°53'0 0.0
2015-Apr-19 20:18N 43°25' E 004°53'0 0.0
2015-Apr-19 19:18N 43°25' E 004°53'0 0.0
2015-Apr-19 17:24N 43°25' E 004°53'0 0.0
2015-Apr-19 16:24N 43°25' E 004°53'0 0.0
2015-Apr-19 15:24N 43°25' E 004°53'0 0.0
2015-Apr-19 13:33N 43°25' E 004°53'3 2.9
2015-Apr-19 12:33N 43°23' E 004°57'9 8.9
2015-Apr-19 11:33N 43°15' E 005°02'10 9.2
2015-Apr-19 10:30N 43°06' E 004°57'1313.2
2015-Apr-19 09:33N 42°55' E 004°48'1110.6
2015-Apr-19 08:30N 42°46' E 004°40'1112.0
2015-Apr-19 07:33N 42°36' E 004°32'1211.9
2015-Apr-19 06:32N 42°26' E 004°23'1512.0
2015-Apr-19 05:18N 42°13' E 004°12'4911.6
2015-Apr-19 01:05N 41°32' E 003°37'811.9
2015-Apr-19 00:25N 41°25' E 003°31'1112.1
2015-Apr-18 23:33N 41°16' E 003°24'1312.4
2015-Apr-18 22:30N 41°05' E 003°14'1111.8
2015-Apr-18 21:33N 40°56' E 003°06'1212.0
2015-Apr-18 20:33N 40°46' E 002°58'1212.4
2015-Apr-18 19:33N 40°35' E 002°50'1212.2
2015-Apr-18 18:33N 40°24' E 002°42'1211.9
2015-Apr-18 17:33N 40°14' E 002°34'1211.9
2015-Apr-18 16:33N 40°04' E 002°26'1212.0
2015-Apr-18 15:33N 39°54' E 002°16'1111.5
2015-Apr-18 14:33N 39°45' E 002°08'1212.2
2015-Apr-18 13:33N 39°35' E 001°60'1212.0
2015-Apr-18 12:33N 39°23' E 001°56'1212.2
2015-Apr-18 11:33N 39°11' E 001°53'1212.2
2015-Apr-18 10:33N 38°59' E 001°50'1211.9
2015-Apr-18 09:33N 38°47' E 001°47'1312.2
2015-Apr-18 08:30N 38°35' E 001°42'1212.1
2015-Apr-18 07:31N 38°25' E 001°34'6312.1
2015-Apr-18 02:17N 37°30' E 000°55'911.9
2015-Apr-18 01:33N 37°22' E 000°50'1212.0
2015-Apr-18 00:33N 37°12' E 000°42'1212.0
2015-Apr-17 23:33N 37°01' E 000°35'1211.7
2015-Apr-17 22:33N 36°50' E 000°29'1111.2
2015-Apr-17 21:33N 36°41' E 000°21'1212.1
2015-Apr-17 20:33N 36°31' E 000°13'  
2015-Apr-14 20:09N 36°10' W 000°06'2 2.2
2015-Apr-14 19:28N 36°11' W 000°05'2 2.3
2015-Apr-14 18:33N 36°13' W 000°04'2 2.3
2015-Apr-14 17:33N 36°15' W 000°03'1 0.9
2015-Apr-14 16:33N 36°16' W 000°03'8 7.9
2015-Apr-14 15:31N 36°12' W 000°11'0 0.1
2015-Apr-14 13:33N 36°12' W 000°12'2 0.2
2015-Apr-14 05:30N 36°14' W 000°12'8 1.3
2015-Apr-13 23:31N 36°07' W 000°16'3 2.1
2015-Apr-13 22:13N 36°09' W 000°15'7 2.3
2015-Apr-13 19:18N 36°14' W 000°10'3 3.1
2015-Apr-13 18:29N 36°13' W 000°12'7 7.9
2015-Apr-13 17:33N 36°06' W 000°15'3 2.8
2015-Apr-13 16:32N 36°04' W 000°12'2 2.3
2015-Apr-13 15:30N 36°07' W 000°12'2 2.2
2015-Apr-13 14:32N 36°09' W 000°11'2 2.3
2015-Apr-13 13:33N 36°11' W 000°09'5 5.2
2015-Apr-13 12:33N 36°05' W 000°09'20 2.9
2015-Apr-13 05:33N 36°22' E 000°04'7 6.9
2015-Apr-13 04:33N 36°26' E 000°11'7 6.7
2015-Apr-13 03:34N 36°30' E 000°18'7 6.5
2015-Apr-13 02:33N 36°33' E 000°25'7 6.5
2015-Apr-13 01:33N 36°37' E 000°32'7 6.9
2015-Apr-13 00:33N 36°41' E 000°39'8 7.1
2015-Apr-12 23:29N 36°45' E 000°47'7 7.4
2015-Apr-12 22:33N 36°49' E 000°54'8 7.6
2015-Apr-12 21:33N 36°53' E 001°02'10 7.4
2015-Apr-12 20:09N 36°60' E 001°12'4 7.2
2015-Apr-12 19:33N 37°03' E 001°15'7 7.4
2015-Apr-12 18:33N 37°09' E 001°21'6 5.8
2015-Apr-12 17:33N 37°10' E 001°28'8 7.6
2015-Apr-12 16:33N 37°07' E 001°37'4 2.5
2015-Apr-12 15:10N 37°04' E 001°34'44 6.3
2015-Apr-12 08:11N 37°06' E 002°29'2 3.0
2015-Apr-12 07:27N 37°06' E 002°26'7 7.3
2015-Apr-12 06:27N 37°07' E 002°35'7 6.8
2015-Apr-12 05:27N 37°08' E 002°44'13 6.8
2015-Apr-12 03:33N 37°09' E 003°00'7 6.9
2015-Apr-12 02:29N 37°10' E 003°09'6 6.8
2015-Apr-12 01:33N 37°11' E 003°17'9 7.3
2015-Apr-12 00:17N 37°12' E 003°29'6 7.5
2015-Apr-11 23:28N 37°13' E 003°36'8 7.3
2015-Apr-11 22:24N 37°14' E 003°46'6 6.9
2015-Apr-11 21:29N 37°14' E 003°54'6 6.4
2015-Apr-11 20:33N 37°15' E 004°02'7 6.8
2015-Apr-11 19:34N 37°16' E 004°10'7 7.0
2015-Apr-11 18:33N 37°17' E 004°19'7 7.1
2015-Apr-11 17:33N 37°17' E 004°28'8 6.8
2015-Apr-11 16:20N 37°18' E 004°38'12 6.4
2015-Apr-11 14:26N 37°20' E 004°53'6 6.3
2015-Apr-11 13:30N 37°21' E 005°00'33 6.7
2015-Apr-11 08:32N 37°24' E 005°42'3110.2
2015-Apr-11 05:30N 37°28' E 006°21'22 9.9
2015-Apr-11 03:16N 37°30' E 006°49'16 9.1
2015-Apr-11 01:29N 37°32' E 007°09'11 8.9
2015-Apr-11 00:14N 37°33' E 007°23'8 8.9
2015-Apr-10 23:21N 37°34' E 007°33'9 9.8
2015-Apr-10 22:26N 37°35' E 007°44'  

Dump ship's entire track history